Time;durP1;ratioP1;P1;durP2;ratioP2;P2;SDS_P1;SDS_P2;PMS_P1;PMS_P2;Temp;Humidity;BMP_temperature;BMP_pressure;BME280_temperature;BME280_humidity;BME280_pressure;Samples;Min_cycle;Max_cycle;Signal;HPM_P1;HPM_P2
2023/12/21 00:02:22;;;;;;;5.28;3.17;;;5.20;99.90;;;;;;4956118;28;20725;-86
2023/12/21 00:04:49;;;;;;;4.10;3.08;;;5.10;99.90;;;;;;4952832;28;20061;-85
2023/12/21 00:07:14;;;;;;;4.78;3.60;;;5.10;99.90;;;;;;4976333;28;20034;-86
2023/12/21 00:09:43;;;;;;;6.57;4.20;;;5.10;99.90;;;;;;4937982;28;20034;-85
2023/12/21 00:12:08;;;;;;;3.95;3.15;;;5.10;99.90;;;;;;4960608;28;20030;-86
2023/12/21 00:14:34;;;;;;;4.72;3.22;;;5.10;99.90;;;;;;4960461;28;20029;-86
2023/12/21 00:17:00;;;;;;;4.00;3.40;;;5.10;99.90;;;;;;4957391;28;20477;-86
2023/12/21 00:19:25;;;;;;;3.50;2.88;;;5.10;99.90;;;;;;4951644;28;20029;-86
2023/12/21 00:21:51;;;;;;;3.63;2.88;;;5.20;99.90;;;;;;4980976;28;20054;-86
2023/12/21 00:24:16;;;;;;;3.95;2.90;;;5.20;99.90;;;;;;4955700;28;20124;-87
2023/12/21 00:26:42;;;;;;;3.53;2.70;;;5.20;99.90;;;;;;4962797;28;20033;-86
2023/12/21 00:29:08;;;;;;;3.50;2.50;;;5.20;99.90;;;;;;4956325;28;20038;-86
2023/12/21 00:31:34;;;;;;;4.70;2.55;;;5.20;99.90;;;;;;4946539;28;20036;-86
2023/12/21 00:33:59;;;;;;;4.55;2.80;;;5.20;99.90;;;;;;4959002;28;22202;-86
2023/12/21 00:36:25;;;;;;;3.00;2.70;;;5.20;99.90;;;;;;4957441;28;20061;-86
2023/12/21 00:38:50;;;;;;;3.42;2.67;;;5.30;99.90;;;;;;4974156;28;20053;-86
2023/12/21 00:41:16;;;;;;;4.13;2.88;;;5.30;99.90;;;;;;4960532;28;20022;-86
2023/12/21 00:43:41;;;;;;;4.60;2.28;;;5.30;99.90;;;;;;4952569;28;22045;-86
2023/12/21 00:46:07;;;;;;;4.05;2.50;;;5.30;99.90;;;;;;4979185;28;20413;-86
2023/12/21 00:48:33;;;;;;;2.40;2.20;;;5.30;99.90;;;;;;4962623;28;20034;-85
2023/12/21 00:51:06;;;;;;;4.10;2.20;;;5.40;99.90;;;;;;4957977;28;20034;-84
2023/12/21 00:53:31;;;;;;;3.47;2.50;;;5.40;99.90;;;;;;4977453;28;20121;-86
2023/12/21 00:55:57;;;;;;;6.30;2.35;;;5.40;99.90;;;;;;4957064;28;20497;-86
2023/12/21 00:58:29;;;;;;;3.42;2.35;;;5.50;99.90;;;;;;4962004;28;20081;-85
2023/12/21 01:00:55;;;;;;;4.32;2.95;;;5.50;99.90;;;;;;4990789;28;20105;-86
2023/12/21 01:03:21;;;;;;;6.20;2.38;;;5.60;99.90;;;;;;4958611;28;20096;-86
2023/12/21 01:05:46;;;;;;;4.18;2.38;;;5.70;99.90;;;;;;4977912;28;20030;-85
2023/12/21 01:08:38;;;;;;;7.15;2.72;;;5.80;99.90;;;;;;4988932;28;20018;-85
2023/12/21 01:11:03;;;;;;;5.40;2.08;;;5.80;99.90;;;;;;4977109;28;20030;-86
2023/12/21 01:13:32;;;;;;;8.43;2.40;;;6.00;99.90;;;;;;4974250;28;20030;-86
2023/12/21 01:15:57;;;;;;;7.85;2.33;;;6.20;99.90;;;;;;4978923;28;20552;-85
2023/12/21 01:18:23;;;;;;;9.57;2.67;;;6.50;99.90;;;;;;4962177;28;20141;-86
2023/12/21 01:20:48;;;;;;;12.70;2.33;;;6.60;99.90;;;;;;4987129;28;20041;-85
2023/12/21 01:23:14;;;;;;;13.68;2.35;;;6.80;99.90;;;;;;4981049;28;20049;-86
2023/12/21 01:25:40;;;;;;;12.43;2.22;;;6.90;99.90;;;;;;4980965;28;20086;-86
2023/12/21 01:28:05;;;;;;;12.68;2.13;;;6.90;99.90;;;;;;4972302;28;20041;-85
2023/12/21 01:30:31;;;;;;;10.48;1.70;;;7.00;99.90;;;;;;4967574;28;20486;-86
2023/12/21 01:33:04;;;;;;;7.85;2.35;;;7.00;99.90;;;;;;4971477;28;20033;-85
2023/12/21 01:35:30;;;;;;;14.45;3.10;;;7.00;99.90;;;;;;4984322;28;20061;-86
2023/12/21 01:37:55;;;;;;;11.10;2.63;;;7.10;99.90;;;;;;4981313;28;20485;-86
2023/12/21 01:40:23;;;;;;;7.15;1.75;;;7.10;99.90;;;;;;4974642;28;20414;-86
2023/12/21 01:42:48;;;;;;;9.35;1.35;;;7.10;99.90;;;;;;4971063;28;20074;-86
2023/12/21 01:45:14;;;;;;;5.65;1.95;;;7.20;99.90;;;;;;4967839;28;20521;-87
2023/12/21 01:47:40;;;;;;;13.73;2.10;;;7.20;99.90;;;;;;4984119;28;21112;-85
2023/12/21 01:50:06;;;;;;;9.68;2.08;;;7.20;99.90;;;;;;4980166;28;20022;-86
2023/12/21 01:52:32;;;;;;;10.02;2.38;;;7.20;99.90;;;;;;4976822;28;20061;-86
2023/12/21 01:54:59;;;;;;;8.38;2.15;;;7.20;99.90;;;;;;4966733;28;20153;-85
2023/12/21 01:57:25;;;;;;;10.02;1.90;;;7.30;99.90;;;;;;4961241;28;20789;-85
2023/12/21 01:59:51;;;;;;;10.93;1.95;;;7.30;99.90;;;;;;4987451;28;20072;-86
2023/12/21 02:02:17;;;;;;;13.77;1.98;;;7.30;99.90;;;;;;4978479;28;20026;-86
2023/12/21 02:04:43;;;;;;;10.02;2.05;;;7.30;99.90;;;;;;4959711;28;20026;-86
2023/12/21 02:07:09;;;;;;;6.13;1.98;;;7.30;99.90;;;;;;4959457;28;20078;-86
2023/12/21 02:09:35;;;;;;;10.40;2.15;;;7.40;99.90;;;;;;4966049;28;20026;-86
2023/12/21 02:12:00;;;;;;;15.60;2.50;;;7.30;99.90;;;;;;4971600;28;20446;-86
2023/12/21 02:14:26;;;;;;;12.27;2.25;;;7.30;99.90;;;;;;4986505;28;20049;-85
2023/12/21 02:16:57;;;;;;;8.32;1.83;;;7.40;99.90;;;;;;4971918;28;20505;-87
2023/12/21 02:19:23;;;;;;;10.15;2.25;;;7.40;99.90;;;;;;4963886;28;20030;-87
2023/12/21 02:21:50;;;;;;;7.47;2.13;;;7.40;99.90;;;;;;4959720;28;20019;-87
2023/12/21 02:24:17;;;;;;;9.55;2.30;;;7.30;99.90;;;;;;4957914;28;20030;-86
2023/12/21 02:26:43;;;;;;;10.88;2.53;;;7.40;99.90;;;;;;4973310;28;21495;-85
2023/12/21 02:29:09;;;;;;;9.40;2.25;;;7.40;99.90;;;;;;4972153;28;20510;-85
2023/12/21 02:31:38;;;;;;;3.70;1.45;;;7.40;99.90;;;;;;4957654;28;20049;-86
2023/12/21 02:34:08;;;;;;;10.05;2.03;;;7.40;99.90;;;;;;4954351;28;20026;-86
2023/12/21 02:36:34;;;;;;;10.75;2.10;;;7.40;99.90;;;;;;4954246;28;20442;-86
2023/12/21 02:39:02;;;;;;;14.18;2.50;;;7.40;99.90;;;;;;4958673;28;20018;-85
2023/12/21 02:41:28;;;;;;;8.60;1.50;;;7.50;99.90;;;;;;4974823;28;20093;-85
2023/12/21 02:43:54;;;;;;;18.77;2.42;;;7.50;99.90;;;;;;4983200;28;20038;-86
2023/12/21 02:46:20;;;;;;;9.82;2.13;;;7.50;99.90;;;;;;4963098;28;20040;-86
2023/12/21 02:48:45;;;;;;;12.48;2.75;;;7.50;99.90;;;;;;4959557;28;20045;-87
2023/12/21 02:51:11;;;;;;;5.40;1.77;;;7.50;99.90;;;;;;4961203;28;20124;-86
2023/12/21 02:53:37;;;;;;;10.98;2.05;;;7.50;99.90;;;;;;4975636;28;21130;-86
2023/12/21 02:56:03;;;;;;;11.18;2.40;;;7.50;99.90;;;;;;4966003;28;20033;-86
2023/12/21 02:58:29;;;;;;;7.55;1.98;;;7.50;99.90;;;;;;4962194;28;20037;-86
2023/12/21 03:00:54;;;;;;;8.73;2.05;;;7.50;99.90;;;;;;4959260;28;20029;-86
2023/12/21 03:03:20;;;;;;;10.05;1.95;;;7.50;99.90;;;;;;4951676;28;21577;-87
2023/12/21 03:05:46;;;;;;;8.27;1.85;;;7.50;99.90;;;;;;4973191;28;20489;-87
2023/12/21 03:08:12;;;;;;;11.65;2.58;;;7.50;99.90;;;;;;4978344;28;20486;-86
2023/12/21 03:10:41;;;;;;;11.43;2.13;;;7.50;99.90;;;;;;4950637;28;20045;-85
2023/12/21 03:13:06;;;;;;;8.95;2.45;;;7.50;99.90;;;;;;4981400;28;20030;-87
2023/12/21 03:15:32;;;;;;;9.77;2.45;;;7.50;99.90;;;;;;4973560;28;20092;-86
2023/12/21 03:17:58;;;;;;;23.58;2.60;;;7.60;99.90;;;;;;4967956;28;20040;-87
2023/12/21 03:20:23;;;;;;;6.82;2.58;;;7.60;99.90;;;;;;4976476;28;20033;-85
2023/12/21 03:22:49;;;;;;;10.02;1.83;;;7.60;99.90;;;;;;4989150;28;20025;-86
2023/12/21 03:25:15;;;;;;;23.10;3.03;;;7.70;99.90;;;;;;4975401;28;20120;-85
2023/12/21 03:27:40;;;;;;;10.43;3.08;;;7.60;99.90;;;;;;4980726;28;20037;-86
2023/12/21 03:30:07;;;;;;;8.07;2.28;;;7.60;99.90;;;;;;4962411;28;20026;-87
2023/12/21 03:32:32;;;;;;;9.63;2.63;;;7.70;99.90;;;;;;4955361;28;20503;-86
2023/12/21 03:34:58;;;;;;;10.07;2.95;;;7.70;99.90;;;;;;4986098;28;20120;-85
2023/12/21 03:37:27;;;;;;;12.45;2.47;;;7.70;99.90;;;;;;4966263;28;20501;-86
2023/12/21 03:39:54;;;;;;;15.00;2.75;;;7.70;99.90;;;;;;4973990;28;20560;-85
2023/12/21 03:42:20;;;;;;;14.98;3.45;;;7.70;99.90;;;;;;4986645;28;20048;-87
2023/12/21 03:44:45;;;;;;;10.75;3.17;;;7.70;99.90;;;;;;4967270;28;21206;-86
2023/12/21 03:47:11;;;;;;;10.40;2.55;;;7.70;99.90;;;;;;4985026;28;20053;-86
2023/12/21 03:49:42;;;;;;;4.90;2.58;;;7.70;99.90;;;;;;4952666;28;20043;-85
2023/12/21 03:52:11;;;;;;;10.27;2.92;;;7.70;99.90;;;;;;4961359;28;20034;-86
2023/12/21 03:54:36;;;;;;;12.43;2.53;;;7.70;99.90;;;;;;4966621;28;20038;-85
2023/12/21 03:57:02;;;;;;;11.95;3.03;;;7.80;99.90;;;;;;4945742;28;20470;-85
2023/12/21 03:59:30;;;;;;;14.88;2.83;;;7.80;99.90;;;;;;4950721;28;20054;-85
2023/12/21 04:01:57;;;;;;;9.50;2.40;;;7.80;99.90;;;;;;4985591;28;20022;-85
2023/12/21 04:04:22;;;;;;;14.73;3.03;;;7.80;99.90;;;;;;4950190;28;20061;-86
2023/12/21 04:06:48;;;;;;;11.25;2.83;;;7.80;99.90;;;;;;4964077;28;20443;-86
2023/12/21 04:09:14;;;;;;;9.25;3.17;;;7.80;99.90;;;;;;4962215;28;20026;-86
2023/12/21 04:11:40;;;;;;;11.93;3.10;;;7.80;99.90;;;;;;4947860;28;21625;-86
2023/12/21 04:14:05;;;;;;;13.23;3.67;;;7.80;99.90;;;;;;4970051;28;20036;-86
2023/12/21 04:16:31;;;;;;;15.07;3.75;;;7.80;99.90;;;;;;4947678;28;20116;-86
2023/12/21 04:19:03;;;;;;;7.00;3.00;;;7.80;99.90;;;;;;4954648;28;20594;-82
2023/12/21 04:21:30;;;;;;;6.95;3.20;;;7.80;99.90;;;;;;4969000;28;20023;-86
2023/12/21 04:23:55;;;;;;;10.07;2.97;;;7.80;99.90;;;;;;4953753;28;20021;-85
2023/12/21 04:26:28;;;;;;;6.82;2.63;;;7.80;99.90;;;;;;4961259;28;20617;-85
2023/12/21 04:28:54;;;;;;;10.10;2.88;;;7.80;99.90;;;;;;4977631;28;21435;-87
2023/12/21 04:31:20;;;;;;;8.63;2.85;;;7.90;99.90;;;;;;4955747;28;20525;-86
2023/12/21 04:33:49;;;;;;;8.75;2.97;;;7.90;99.90;;;;;;4974481;28;20026;-86
2023/12/21 04:36:15;;;;;;;8.50;2.17;;;7.80;99.90;;;;;;4945954;28;20033;-86
2023/12/21 04:38:40;;;;;;;4.38;2.33;;;7.90;99.90;;;;;;4952689;28;21270;-86
2023/12/21 04:41:06;;;;;;;7.30;1.90;;;7.90;99.90;;;;;;4977115;28;20045;-85
2023/12/21 04:43:32;;;;;;;12.85;2.35;;;7.90;99.90;;;;;;4951256;28;20032;-86
2023/12/21 04:46:03;;;;;;;5.20;2.05;;;7.90;99.90;;;;;;4966808;28;20029;-84
2023/12/21 04:48:28;;;;;;;5.15;1.80;;;7.90;99.90;;;;;;4977248;28;20041;-85
2023/12/21 04:50:54;;;;;;;2.33;1.23;;;7.90;99.90;;;;;;4947578;28;20021;-86
2023/12/21 04:53:20;;;;;;;3.25;1.58;;;7.90;99.90;;;;;;4971492;28;20038;-84
2023/12/21 04:55:45;;;;;;;5.60;1.48;;;7.90;99.90;;;;;;4952173;28;20408;-86
2023/12/21 04:58:11;;;;;;;2.10;1.40;;;7.90;99.90;;;;;;4967948;28;20666;-86
2023/12/21 05:00:37;;;;;;;4.13;1.17;;;7.90;99.90;;;;;;4965285;28;20068;-86
2023/12/21 05:03:03;;;;;;;5.40;1.40;;;7.90;99.90;;;;;;4973728;28;20032;-86
2023/12/21 05:05:31;;;;;;;6.22;1.75;;;7.90;99.90;;;;;;4985417;28;20045;-87
2023/12/21 05:07:59;;;;;;;3.83;1.00;;;7.90;99.90;;;;;;4990296;28;20498;-86
2023/12/21 05:10:25;;;;;;;4.13;1.10;;;7.90;99.90;;;;;;4990496;28;20469;-87
2023/12/21 05:12:51;;;;;;;2.53;0.88;;;7.90;99.90;;;;;;4981208;28;20028;-86
2023/12/21 05:15:16;;;;;;;3.60;1.02;;;7.90;99.90;;;;;;4985749;28;20033;-87
2023/12/21 05:17:42;;;;;;;1.13;0.90;;;7.90;99.90;;;;;;4980503;28;21708;-86
2023/12/21 05:20:09;;;;;;;1.90;1.10;;;7.90;99.90;;;;;;4989944;28;20117;-87
2023/12/21 05:22:36;;;;;;;4.45;1.30;;;8.00;99.90;;;;;;4991717;28;20034;-86
2023/12/21 05:25:01;;;;;;;3.95;1.48;;;7.90;99.90;;;;;;4984400;28;20036;-87
2023/12/21 05:27:27;;;;;;;2.88;0.82;;;8.00;99.90;;;;;;4990987;28;20038;-86
2023/12/21 05:29:53;;;;;;;1.30;0.80;;;8.00;99.90;;;;;;4987036;28;20502;-87
2023/12/21 05:32:19;;;;;;;2.15;0.80;;;8.00;99.90;;;;;;4988149;28;20029;-86
2023/12/21 05:34:47;;;;;;;2.75;1.10;;;8.00;99.90;;;;;;4987764;28;20034;-87
2023/12/21 05:37:13;;;;;;;1.60;0.70;;;8.00;99.90;;;;;;4984483;28;20876;-87
2023/12/21 05:39:39;;;;;;;1.75;1.17;;;8.00;99.90;;;;;;4986687;28;20034;-86
2023/12/21 05:42:04;;;;;;;2.58;0.70;;;8.00;99.90;;;;;;4984032;28;20052;-87
2023/12/21 05:44:30;;;;;;;1.73;0.80;;;8.00;99.90;;;;;;4986211;28;20121;-86
2023/12/21 05:46:55;;;;;;;0.73;0.50;;;8.00;99.90;;;;;;4985212;28;20081;-85
2023/12/21 05:49:21;;;;;;;2.25;0.60;;;8.00;99.90;;;;;;4980876;28;20034;-86
2023/12/21 05:51:48;;;;;;;0.98;0.52;;;8.00;99.90;;;;;;4996794;28;20494;-87
2023/12/21 05:54:14;;;;;;;1.80;0.60;;;8.00;99.90;;;;;;4971892;28;20029;-86
2023/12/21 05:56:41;;;;;;;0.65;0.55;;;8.00;99.90;;;;;;4971614;28;20039;-86
2023/12/21 05:59:06;;;;;;;0.82;0.55;;;8.00;99.90;;;;;;4991705;28;20026;-86
2023/12/21 06:01:34;;;;;;;0.38;0.30;;;8.00;99.90;;;;;;4942217;28;20096;-86
2023/12/21 06:04:05;;;;;;;0.52;0.52;;;8.00;99.90;;;;;;4907677;28;20601;-84
2023/12/21 06:06:31;;;;;;;0.73;0.73;;;8.00;99.90;;;;;;4931979;28;20105;-86
2023/12/21 06:08:56;;;;;;;1.85;0.80;;;8.00;99.90;;;;;;4881998;28;20034;-85
2023/12/21 06:11:30;;;;;;;0.50;0.40;;;8.00;99.90;;;;;;4939725;28;20132;-86
2023/12/21 06:13:55;;;;;;;1.75;0.70;;;8.00;99.90;;;;;;4947953;28;20033;-86
2023/12/21 06:16:24;;;;;;;0.75;0.60;;;8.00;99.90;;;;;;4913300;28;20486;-87
2023/12/21 06:18:50;;;;;;;0.90;0.77;;;8.00;99.90;;;;;;4932329;28;20031;-87
2023/12/21 06:21:16;;;;;;;3.03;0.55;;;8.00;99.90;;;;;;4894643;28;20113;-85
2023/12/21 06:23:44;;;;;;;1.17;0.60;;;8.00;99.90;;;;;;4901772;28;21615;-86
2023/12/21 06:26:10;;;;;;;0.70;0.70;;;8.00;99.90;;;;;;4962863;28;20558;-87
2023/12/21 06:28:35;;;;;;;1.25;0.80;;;8.00;99.90;;;;;;4920773;28;20030;-86
2023/12/21 06:31:08;;;;;;;0.80;0.80;;;8.00;99.90;;;;;;4910058;28;20030;-87
2023/12/21 06:33:34;;;;;;;1.20;0.80;;;8.00;99.90;;;;;;4946144;28;20038;-86
2023/12/21 06:36:00;;;;;;;4.45;2.50;;;8.00;99.90;;;;;;4887524;28;20490;-85
2023/12/21 06:38:31;;;;;;;2.15;1.50;;;8.00;99.90;;;;;;4903472;28;20126;-85
2023/12/21 06:40:57;;;;;;;2.00;1.73;;;8.00;99.90;;;;;;4953565;28;20176;-86
2023/12/21 06:43:26;;;;;;;5.43;2.92;;;8.00;99.90;;;;;;4898837;28;20466;-85
2023/12/21 06:45:51;;;;;;;1.75;1.63;;;8.00;99.90;;;;;;4923959;28;20042;-86
2023/12/21 06:48:17;;;;;;;1.77;1.42;;;8.00;99.90;;;;;;4894493;28;20049;-85
2023/12/21 06:50:47;;;;;;;0.85;0.85;;;8.00;99.90;;;;;;4915098;28;21304;-85
2023/12/21 06:53:15;;;;;;;0.98;0.95;;;8.00;99.90;;;;;;4961062;28;20069;-86
2023/12/21 06:55:42;;;;;;;1.33;1.23;;;8.10;99.90;;;;;;4907157;28;20506;-86
2023/12/21 06:58:08;;;;;;;0.85;0.85;;;8.10;99.90;;;;;;4908692;28;20393;-86
2023/12/21 07:00:33;;;;;;;0.98;0.85;;;8.10;99.90;;;;;;4929571;28;20030;-86
2023/12/21 07:03:00;;;;;;;2.20;0.90;;;8.00;99.90;;;;;;4890827;28;20031;-86
2023/12/21 07:05:36;;;;;;;0.57;0.47;;;8.00;99.90;;;;;;4915572;28;20417;-85
2023/12/21 07:08:02;;;;;;;1.58;0.60;;;8.00;99.90;;;;;;4939414;28;20041;-86
2023/12/21 07:10:27;;;;;;;0.43;0.43;;;8.10;99.90;;;;;;4926909;28;20034;-85
2023/12/21 07:12:53;;;;;;;0.70;0.70;;;8.10;99.90;;;;;;4953640;28;20486;-86
2023/12/21 07:15:32;;;;;;;0.70;0.70;;;8.10;99.90;;;;;;4928672;28;20164;-85
2023/12/21 07:17:58;;;;;;;1.63;0.88;;;8.10;99.90;;;;;;4911926;28;20030;-86
2023/12/21 07:20:35;;;;;;;1.20;1.10;;;8.10;99.90;;;;;;4900146;28;20034;-85
2023/12/21 07:23:04;;;;;;;0.80;0.80;;;8.10;99.90;;;;;;4944923;28;20021;-86
2023/12/21 07:25:37;;;;;;;1.10;1.00;;;8.10;99.90;;;;;;4915195;28;20022;-84
2023/12/21 07:28:03;;;;;;;1.00;0.98;;;8.10;99.90;;;;;;4915174;28;20026;-86
2023/12/21 07:30:29;;;;;;;0.93;0.88;;;8.10;99.90;;;;;;4936742;28;20034;-85
2023/12/21 07:32:55;;;;;;;0.82;0.63;;;8.10;99.90;;;;;;4917136;28;20049;-85
2023/12/21 07:35:21;;;;;;;0.60;0.60;;;8.10;99.90;;;;;;4942330;28;20026;-85
2023/12/21 07:37:59;;;;;;;0.57;0.57;;;8.10;99.90;;;;;;4911545;28;20037;-86
2023/12/21 07:40:24;;;;;;;1.13;0.63;;;8.10;99.90;;;;;;4903312;28;20031;-86
2023/12/21 07:42:50;;;;;;;0.75;0.70;;;8.20;99.90;;;;;;4939558;28;20080;-85
2023/12/21 07:45:29;;;;;;;1.05;0.93;;;8.20;99.90;;;;;;4894858;28;20486;-86
2023/12/21 07:47:54;;;;;;;1.33;0.60;;;8.20;99.90;;;;;;4883996;28;20042;-86
2023/12/21 07:50:20;;;;;;;0.68;0.68;;;8.20;99.90;;;;;;4949382;28;20041;-84
2023/12/21 07:52:45;;;;;;;1.52;0.57;;;8.20;99.90;;;;;;4926253;28;20532;-86
2023/12/21 07:55:14;;;;;;;1.10;0.50;;;8.20;99.90;;;;;;4918991;28;20080;-85
2023/12/21 07:57:39;;;;;;;0.30;0.30;;;8.20;99.90;;;;;;4950627;28;20041;-85
2023/12/21 08:00:06;;;;;;;0.45;0.32;;;8.20;99.90;;;;;;4905469;28;20045;-85
2023/12/21 08:02:40;;;;;;;0.60;0.28;;;8.20;99.90;;;;;;4906628;28;20040;-85
2023/12/21 08:05:05;;;;;;;0.30;0.30;;;8.20;99.90;;;;;;4954392;28;20501;-86
2023/12/21 08:07:31;;;;;;;1.48;0.30;;;8.20;99.90;;;;;;4897717;28;20109;-86
2023/12/21 08:10:15;;;;;;;0.20;0.20;;;8.20;99.90;;;;;;4951745;28;20037;-85
2023/12/21 08:12:43;;;;;;;0.25;0.10;;;8.20;99.90;;;;;;4966204;28;20064;-87
2023/12/21 08:15:12;;;;;;;1.55;0.22;;;8.20;99.90;;;;;;4950696;28;20057;-87
2023/12/21 08:17:51;;;;;;;0.40;0.25;;;8.20;99.90;;;;;;4899082;28;21413;-86
2023/12/21 08:20:16;;;;;;;0.15;0.05;;;8.20;99.90;;;;;;4955400;28;20037;-86
2023/12/21 08:22:43;;;;;;;0.30;0.20;;;8.20;99.90;;;;;;4916758;28;20203;-86
2023/12/21 08:25:11;;;;;;;0.00;0.00;;;8.20;99.90;;;;;;4907415;28;20100;-87
2023/12/21 08:27:37;;;;;;;0.57;0.10;;;8.30;99.90;;;;;;4927383;28;20083;-87
2023/12/21 08:30:03;;;;;;;0.35;0.28;;;8.30;99.90;;;;;;4902864;28;20030;-86
2023/12/21 08:32:29;;;;;;;0.20;0.10;;;8.30;99.90;;;;;;4922130;28;20039;-86
2023/12/21 08:34:55;;;;;;;0.00;0.00;;;8.30;99.90;;;;;;4966077;28;20032;-86
2023/12/21 08:37:20;;;;;;;0.43;0.10;;;8.30;99.90;;;;;;4926798;28;20544;-86
2023/12/21 08:39:46;;;;;;;0.15;0.10;;;8.30;99.90;;;;;;4958185;28;20034;-85
2023/12/21 08:42:11;;;;;;;0.20;0.20;;;8.30;99.90;;;;;;4925348;28;20497;-86
2023/12/21 08:44:40;;;;;;;0.25;0.25;;;8.30;99.90;;;;;;4957001;28;20163;-87
2023/12/21 08:47:12;;;;;;;0.73;0.20;;;8.30;99.90;;;;;;4971255;28;20062;-88
2023/12/21 08:49:41;;;;;;;0.45;0.40;;;8.30;99.90;;;;;;4962146;28;20030;-86
2023/12/21 08:52:17;;;;;;;0.40;0.30;;;8.30;99.90;;;;;;4955390;28;20034;-86
2023/12/21 08:54:45;;;;;;;0.65;0.30;;;8.30;99.90;;;;;;4959745;28;20418;-87
2023/12/21 08:57:22;;;;;;;0.47;0.28;;;8.30;99.90;;;;;;4942747;28;20031;-85
2023/12/21 08:59:48;;;;;;;1.20;0.80;;;8.30;99.90;;;;;;4874410;28;21177;-88
2023/12/21 09:02:16;;;;;;;0.55;0.40;;;8.30;99.90;;;;;;4958488;28;20061;-85
2023/12/21 09:04:45;;;;;;;2.35;0.98;;;8.30;99.90;;;;;;4891133;28;20022;-86
2023/12/21 09:07:11;;;;;;;1.08;0.45;;;8.30;99.90;;;;;;4900966;28;20026;-87
2023/12/21 09:09:41;;;;;;;1.20;0.75;;;8.30;99.90;;;;;;4938268;28;20097;-87
2023/12/21 09:12:08;;;;;;;0.75;0.40;;;8.30;99.90;;;;;;4886559;28;20133;-87
2023/12/21 09:14:34;;;;;;;0.93;0.43;;;8.30;99.90;;;;;;4904364;28;20038;-88
2023/12/21 09:17:00;;;;;;;1.98;0.57;;;8.30;99.90;;;;;;4934847;28;20033;-87
2023/12/21 09:19:27;;;;;;;0.40;0.40;;;8.30;99.90;;;;;;4914121;28;20805;-87
2023/12/21 09:21:53;;;;;;;5.90;1.00;;;8.30;99.90;;;;;;4957604;28;20030;-87
2023/12/21 09:24:18;;;;;;;2.05;0.70;;;8.30;99.90;;;;;;4955447;28;20116;-86
2023/12/21 09:27:16;;;;;;;0.88;0.80;;;8.30;99.90;;;;;;4924368;28;21329;-88
2023/12/21 09:29:42;;;;;;;1.55;0.68;;;8.30;99.90;;;;;;4891662;28;21604;-87
2023/12/21 09:32:08;;;;;;;1.67;0.98;;;8.30;99.90;;;;;;4962682;28;20037;-87
2023/12/21 09:34:34;;;;;;;0.40;0.40;;;8.40;99.90;;;;;;4915344;28;20489;-88
2023/12/21 09:37:06;;;;;;;0.68;0.47;;;8.30;99.90;;;;;;4925350;28;20038;-86
2023/12/21 09:39:31;;;;;;;1.17;0.70;;;8.30;99.90;;;;;;4944121;28;20030;-87
2023/12/21 09:42:01;;;;;;;0.43;0.40;;;8.40;99.90;;;;;;4908220;28;20509;-87
2023/12/21 09:44:37;;;;;;;1.58;0.55;;;8.40;99.90;;;;;;4913369;28;20038;-86
2023/12/21 09:47:06;;;;;;;0.93;0.47;;;8.40;99.90;;;;;;4947935;28;20044;-88
2023/12/21 09:49:37;;;;;;;1.98;0.70;;;8.50;99.90;;;;;;4906477;28;20030;-87
2023/12/21 09:52:08;;;;;;;1.60;0.60;;;8.50;99.90;;;;;;4907427;28;20106;-86
2023/12/21 09:54:36;;;;;;;0.82;0.32;;;8.50;99.90;;;;;;4972711;22;20042;-62
2023/12/21 09:57:04;;;;;;;1.25;0.70;;;8.50;99.90;;;;;;4900319;28;20037;-61
2023/12/21 09:59:32;;;;;;;0.52;0.30;;;8.50;99.90;;;;;;4892505;28;20028;-64
2023/12/21 10:01:57;;;;;;;3.80;0.77;;;8.50;99.90;;;;;;4961351;28;20085;-60
2023/12/21 10:04:23;;;;;;;1.38;0.32;;;8.50;99.90;;;;;;4871847;28;21649;-62
2023/12/21 10:06:49;;;;;;;0.77;0.50;;;8.50;99.90;;;;;;4923656;28;20085;-61
2023/12/21 10:09:15;;;;;;;0.50;0.30;;;8.60;99.90;;;;;;4883632;28;20037;-61
2023/12/21 10:11:41;;;;;;;0.40;0.30;;;8.60;99.90;;;;;;4867543;28;21638;-62
2023/12/21 10:14:19;;;;;;;0.38;0.30;;;8.60;99.90;;;;;;4970139;28;20030;-61
2023/12/21 10:16:45;;;;;;;1.65;0.47;;;8.60;99.90;;;;;;4867244;28;20030;-62
2023/12/21 10:19:12;;;;;;;1.17;0.40;;;8.60;99.90;;;;;;4863894;28;20057;-62
2023/12/21 10:21:40;;;;;;;1.00;0.28;;;8.70;99.90;;;;;;4936003;28;21379;-59
2023/12/21 10:24:06;;;;;;;0.57;0.40;;;8.70;99.90;;;;;;4887483;28;20030;-62
2023/12/21 10:26:32;;;;;;;0.77;0.40;;;8.70;99.90;;;;;;4877434;28;20026;-63
2023/12/21 10:28:58;;;;;;;1.08;0.30;;;8.70;99.90;;;;;;4931038;28;20631;-63
2023/12/21 10:31:26;;;;;;;0.57;0.30;;;8.70;99.90;;;;;;4961193;28;20354;-62
2023/12/21 10:33:52;;;;;;;0.65;0.30;;;8.80;99.90;;;;;;4990762;28;20422;-61
2023/12/21 10:36:18;;;;;;;0.32;0.28;;;8.80;99.90;;;;;;4949982;28;20099;-63
2023/12/21 10:38:44;;;;;;;0.80;0.35;;;8.80;99.90;;;;;;4959874;28;20033;-61
2023/12/21 10:41:10;;;;;;;0.75;0.43;;;8.80;99.90;;;;;;4923918;28;20026;-61
2023/12/21 10:43:36;;;;;;;2.30;0.70;;;8.80;99.90;;;;;;4907459;28;20912;-62
2023/12/21 10:46:03;;;;;;;2.45;0.77;;;8.80;99.90;;;;;;4936115;28;20038;-63
2023/12/21 10:48:32;;;;;;;3.28;0.80;;;8.80;99.90;;;;;;4967037;28;20030;-62
2023/12/21 10:50:58;;;;;;;3.10;0.60;;;8.90;99.90;;;;;;4947327;28;20045;-62
2023/12/21 10:53:27;;;;;;;2.78;0.68;;;8.90;99.90;;;;;;4924957;28;20487;-62
2023/12/21 10:55:54;;;;;;;3.50;1.15;;;8.90;99.90;;;;;;4901930;28;20105;-63
2023/12/21 10:58:22;;;;;;;4.13;0.93;;;8.90;99.90;;;;;;4927081;28;21769;-60
2023/12/21 11:00:49;;;;;;;3.60;1.05;;;8.90;99.90;;;;;;4961010;28;20028;-61
2023/12/21 11:03:17;;;;;;;5.45;0.80;;;8.90;99.90;;;;;;4935913;28;20109;-63
2023/12/21 11:05:44;;;;;;;3.33;0.80;;;9.00;99.90;;;;;;4927633;28;20080;-62
2023/12/21 11:08:10;;;;;;;3.47;1.40;;;9.00;99.90;;;;;;4956789;28;20025;-62
2023/12/21 11:10:37;;;;;;;6.70;1.27;;;8.90;99.90;;;;;;4910561;28;20030;-62
2023/12/21 11:13:03;;;;;;;3.53;1.33;;;8.90;99.90;;;;;;4912703;28;20030;-64
2023/12/21 11:15:29;;;;;;;4.55;0.90;;;9.00;99.90;;;;;;4963242;28;20615;-62
2023/12/21 11:17:59;;;;;;;6.38;1.52;;;9.00;99.90;;;;;;4959906;28;21580;-63
2023/12/21 11:20:30;;;;;;;7.40;2.33;;;9.00;99.90;;;;;;4911564;28;20161;-62
2023/12/21 11:22:56;;;;;;;7.13;1.45;;;9.00;99.90;;;;;;4919117;28;20041;-62
2023/12/21 11:25:23;;;;;;;5.82;1.13;;;9.10;99.90;;;;;;4904492;28;20638;-62
2023/12/21 11:27:50;;;;;;;4.63;1.15;;;9.00;99.90;;;;;;4972064;28;20022;-62
2023/12/21 11:30:18;;;;;;;8.02;2.92;;;9.10;99.90;;;;;;4955527;28;20083;-61
2023/12/21 11:32:46;;;;;;;8.95;2.47;;;9.00;99.90;;;;;;4920617;28;20026;-62
2023/12/21 11:35:22;;;;;;;15.88;4.93;;;9.10;99.90;;;;;;4921857;28;20108;-63
2023/12/21 11:38:05;;;;;;;11.70;4.35;;;9.10;99.90;;;;;;4896246;28;20032;-62
2023/12/21 11:40:32;;;;;;;14.38;4.80;;;9.10;99.90;;;;;;4909915;28;20061;-62
2023/12/21 11:43:00;;;;;;;10.65;2.40;;;9.10;99.90;;;;;;4941945;28;20022;-64
2023/12/21 11:45:28;;;;;;;9.07;2.50;;;9.10;99.90;;;;;;4973563;28;20027;-62
2023/12/21 11:47:57;;;;;;;8.57;1.77;;;9.10;99.90;;;;;;4996142;28;20572;-62
2023/12/21 11:50:30;;;;;;;5.35;1.20;;;8.80;99.90;;;;;;4982011;28;20517;-62
2023/12/21 11:53:10;;;;;;;4.53;1.20;;;8.50;99.90;;;;;;4935367;28;20018;-62
2023/12/21 11:55:41;;;;;;;3.28;0.70;;;8.20;99.90;;;;;;4960854;28;20052;-60
2023/12/21 11:58:21;;;;;;;4.38;1.08;;;8.10;99.90;;;;;;4967764;28;20028;-61
2023/12/21 12:00:50;;;;;;;5.68;1.38;;;7.90;99.90;;;;;;4966865;28;20032;-63
2023/12/21 12:03:17;;;;;;;2.92;1.88;;;7.90;99.90;;;;;;4995413;28;20026;-62
2023/12/21 12:05:44;;;;;;;6.43;1.45;;;7.80;99.90;;;;;;4959458;28;20717;-61
2023/12/21 12:08:10;;;;;;;2.95;0.70;;;7.70;99.90;;;;;;4960962;28;20037;-62
2023/12/21 12:10:36;;;;;;;3.92;1.00;;;7.50;99.90;;;;;;4960645;28;20030;-63
2023/12/21 12:13:03;;;;;;;5.30;1.35;;;7.50;99.90;;;;;;4959108;28;20073;-62
2023/12/21 12:15:29;;;;;;;3.88;1.10;;;7.40;99.90;;;;;;4962041;28;20061;-62
2023/12/21 12:17:55;;;;;;;4.65;0.93;;;7.40;99.90;;;;;;4988852;28;20084;-62
2023/12/21 12:20:20;;;;;;;4.18;1.35;;;7.30;99.90;;;;;;4964215;28;20327;-62
2023/12/21 12:22:49;;;;;;;3.28;0.95;;;7.30;99.90;;;;;;4936835;28;20438;-61
2023/12/21 12:25:18;;;;;;;7.18;1.55;;;7.30;99.90;;;;;;4956847;28;20064;-62
2023/12/21 12:27:44;;;;;;;6.20;1.38;;;7.30;99.90;;;;;;4937370;28;22188;-60
2023/12/21 12:30:11;;;;;;;4.38;1.35;;;7.30;99.90;;;;;;4984370;28;20755;-62
2023/12/21 12:32:37;;;;;;;9.70;1.73;;;7.30;99.90;;;;;;4956399;28;20474;-62
2023/12/21 12:35:03;;;;;;;8.60;1.52;;;7.30;99.90;;;;;;4959458;28;20028;-62
2023/12/21 12:37:30;;;;;;;7.22;1.63;;;7.30;99.90;;;;;;4963220;28;20026;-60
2023/12/21 12:39:56;;;;;;;7.22;1.75;;;7.30;99.90;;;;;;4924806;28;20026;-61
2023/12/21 12:42:22;;;;;;;9.88;1.50;;;7.30;99.90;;;;;;4970917;28;20038;-64
2023/12/21 12:44:51;;;;;;;5.90;1.10;;;7.20;99.90;;;;;;4976437;28;20038;-62
2023/12/21 12:47:17;;;;;;;3.80;0.85;;;7.30;99.90;;;;;;4952045;28;20517;-61
2023/12/21 12:49:43;;;;;;;3.15;0.90;;;7.20;99.90;;;;;;4931386;28;20021;-61
2023/12/21 12:52:16;;;;;;;3.25;1.10;;;7.20;99.90;;;;;;4954260;28;20520;-62
2023/12/21 12:54:41;;;;;;;7.43;1.63;;;7.20;99.90;;;;;;4969485;28;21663;-62
2023/12/21 12:57:09;;;;;;;5.45;1.33;;;7.10;99.90;;;;;;4961211;28;20042;-61